sensor_id;sensor_type;location;lat;lon;timestamp;pressure;altitude;pressure_sealevel;temperature;humidity
8451;BME280;4262;50.980;13.892;2024-03-08T00:00:16;86947.56;;;-142.97;47.43
8451;BME280;4262;50.980;13.892;2024-03-08T00:02:44;87024.41;;;-142.97;47.23
8451;BME280;4262;50.980;13.892;2024-03-08T00:05:12;86967.25;;;-142.97;47.36
8451;BME280;4262;50.980;13.892;2024-03-08T00:07:41;86955.44;;;-142.97;47.43
8451;BME280;4262;50.980;13.892;2024-03-08T00:10:10;87032.28;;;-142.97;47.28
8451;BME280;4262;50.980;13.892;2024-03-08T00:12:37;86955.44;;;-142.97;47.14
8451;BME280;4262;50.980;13.892;2024-03-08T00:15:04;86939.69;;;-142.97;47.51
8451;BME280;4262;50.980;13.892;2024-03-08T00:17:32;86931.78;;;-142.97;47.45
8451;BME280;4262;50.980;13.892;2024-03-08T00:19:58;86965.28;;;-142.97;46.55
8451;BME280;4262;50.980;13.892;2024-03-08T00:22:25;87020.47;;;-142.97;47.59
8451;BME280;4262;50.980;13.892;2024-03-08T00:24:53;87008.66;;;-142.97;48.08
8451;BME280;4262;50.980;13.892;2024-03-08T00:27:21;87057.91;;;-142.97;47.80
8451;BME280;4262;50.980;13.892;2024-03-08T00:29:48;87101.28;;;-142.97;47.77
8451;BME280;4262;50.980;13.892;2024-03-08T00:32:15;87010.63;;;-142.97;48.06
8451;BME280;4262;50.980;13.892;2024-03-08T00:34:42;86973.19;;;-142.97;48.36
8451;BME280;4262;50.980;13.892;2024-03-08T00:37:09;86961.34;;;-142.97;48.13
8451;BME280;4262;50.980;13.892;2024-03-08T00:39:36;86988.94;;;-142.97;47.95
8451;BME280;4262;50.980;13.892;2024-03-08T00:42:04;86988.94;;;-142.97;48.04
8451;BME280;4262;50.980;13.892;2024-03-08T00:44:31;87028.34;;;-142.97;48.04
8451;BME280;4262;50.980;13.892;2024-03-08T00:46:58;86992.88;;;-142.97;48.71
8451;BME280;4262;50.980;13.892;2024-03-08T00:49:24;87004.72;;;-142.97;48.75
8451;BME280;4262;50.980;13.892;2024-03-08T00:51:51;87020.47;;;-142.97;49.24
8451;BME280;4262;50.980;13.892;2024-03-08T00:54:18;87048.06;;;-142.97;48.75
8451;BME280;4262;50.980;13.892;2024-03-08T00:56:45;87016.53;;;-142.97;48.44
8451;BME280;4262;50.980;13.892;2024-03-08T00:59:13;87048.06;;;-142.97;49.09
8451;BME280;4262;50.980;13.892;2024-03-08T01:01:41;87038.22;;;-142.97;49.84
8451;BME280;4262;50.980;13.892;2024-03-08T01:04:09;87042.16;;;-142.97;49.85
8451;BME280;4262;50.980;13.892;2024-03-08T01:06:37;87038.22;;;-142.97;49.33
8451;BME280;4262;50.980;13.892;2024-03-08T01:09:04;87071.72;;;-142.97;49.90
8451;BME280;4262;50.980;13.892;2024-03-08T01:11:32;87002.75;;;-142.97;50.63
8451;BME280;4262;50.980;13.892;2024-03-08T01:13:59;87083.53;;;-142.97;50.89
8451;BME280;4262;50.980;13.892;2024-03-08T01:16:28;87061.84;;;-142.97;50.68
8451;BME280;4262;50.980;13.892;2024-03-08T01:18:55;87075.66;;;-142.97;51.03
8451;BME280;4262;50.980;13.892;2024-03-08T01:21:22;87067.78;;;-142.97;49.94
8451;BME280;4262;50.980;13.892;2024-03-08T01:23:49;87083.53;;;-142.97;50.33
8451;BME280;4262;50.980;13.892;2024-03-08T01:26:15;87073.69;;;-142.97;50.62
8451;BME280;4262;50.980;13.892;2024-03-08T01:28:42;87111.13;;;-142.97;50.96
8451;BME280;4262;50.980;13.892;2024-03-08T01:31:09;87079.59;;;-142.97;50.88
8451;BME280;4262;50.980;13.892;2024-03-08T01:33:38;87087.47;;;-142.97;51.49
8451;BME280;4262;50.980;13.892;2024-03-08T01:36:06;87083.53;;;-142.97;51.13
8451;BME280;4262;50.980;13.892;2024-03-08T01:38:33;87052.00;;;-142.97;50.83
8451;BME280;4262;50.980;13.892;2024-03-08T01:41:04;87075.66;;;-142.97;50.96
8451;BME280;4262;50.980;13.892;2024-03-08T01:43:31;87083.53;;;-142.97;51.16
8451;BME280;4262;50.980;13.892;2024-03-08T01:45:58;87071.72;;;-142.97;51.41
8451;BME280;4262;50.980;13.892;2024-03-08T01:48:26;87091.41;;;-142.97;51.54
8451;BME280;4262;50.980;13.892;2024-03-08T01:50:56;87050.03;;;-142.97;50.96
8451;BME280;4262;50.980;13.892;2024-03-08T01:53:24;87101.28;;;-142.97;51.01
8451;BME280;4262;50.980;13.892;2024-03-08T01:55:54;87073.69;;;-142.97;50.99
8451;BME280;4262;50.980;13.892;2024-03-08T01:58:22;87099.31;;;-142.97;50.85
8451;BME280;4262;50.980;13.892;2024-03-08T02:00:50;87091.41;;;-142.97;51.08
8451;BME280;4262;50.980;13.892;2024-03-08T02:03:16;87099.31;;;-142.97;51.19
8451;BME280;4262;50.980;13.892;2024-03-08T02:05:43;87095.34;;;-142.97;51.19
8451;BME280;4262;50.980;13.892;2024-03-08T02:08:11;87105.22;;;-142.97;51.22
8451;BME280;4262;50.980;13.892;2024-03-08T02:10:40;87091.41;;;-142.97;51.60
8451;BME280;4262;50.980;13.892;2024-03-08T02:13:07;87101.28;;;-142.97;51.32
8451;BME280;4262;50.980;13.892;2024-03-08T02:15:51;87119.00;;;-142.97;51.56
8451;BME280;4262;50.980;13.892;2024-03-08T02:18:18;87120.97;;;-142.97;52.03
8451;BME280;4262;50.980;13.892;2024-03-08T02:20:46;87091.41;;;-142.97;51.50
8451;BME280;4262;50.980;13.892;2024-03-08T02:23:14;87107.19;;;-142.97;51.34
8451;BME280;4262;50.980;13.892;2024-03-08T02:25:41;87085.50;;;-142.97;51.32
8451;BME280;4262;50.980;13.892;2024-03-08T02:28:09;87107.19;;;-142.97;51.53
8451;BME280;4262;50.980;13.892;2024-03-08T02:30:37;87113.09;;;-142.97;51.73
8451;BME280;4262;50.980;13.892;2024-03-08T02:33:04;87083.53;;;-142.97;51.44
8451;BME280;4262;50.980;13.892;2024-03-08T02:35:31;87113.09;;;-142.97;51.40
8451;BME280;4262;50.980;13.892;2024-03-08T02:37:59;87089.44;;;-142.97;51.17
8451;BME280;4262;50.980;13.892;2024-03-08T02:40:26;87097.34;;;-142.97;51.41
8451;BME280;4262;50.980;13.892;2024-03-08T02:42:53;87105.22;;;-142.97;51.68
8451;BME280;4262;50.980;13.892;2024-03-08T02:45:19;87134.78;;;-142.97;51.22
8451;BME280;4262;50.980;13.892;2024-03-08T02:47:47;87119.00;;;-142.97;51.83
8451;BME280;4262;50.980;13.892;2024-03-08T02:50:14;87103.25;;;-142.97;51.70
8451;BME280;4262;50.980;13.892;2024-03-08T02:52:42;87122.94;;;-142.97;51.66
8451;BME280;4262;50.980;13.892;2024-03-08T02:55:10;87099.31;;;-142.97;51.66
8451;BME280;4262;50.980;13.892;2024-03-08T02:57:40;87138.72;;;-142.97;51.85
8451;BME280;4262;50.980;13.892;2024-03-08T03:00:08;87119.00;;;-142.97;52.05
8451;BME280;4262;50.980;13.892;2024-03-08T03:02:35;87128.88;;;-142.97;52.38
8451;BME280;4262;50.980;13.892;2024-03-08T03:05:03;87126.91;;;-142.97;52.04
8451;BME280;4262;50.980;13.892;2024-03-08T03:07:31;87166.31;;;-142.97;51.88
8451;BME280;4262;50.980;13.892;2024-03-08T03:09:59;87119.00;;;-142.97;52.16
8451;BME280;4262;50.980;13.892;2024-03-08T03:12:28;87142.66;;;-142.97;52.11
8451;BME280;4262;50.980;13.892;2024-03-08T03:14:55;87138.72;;;-142.97;51.85
8451;BME280;4262;50.980;13.892;2024-03-08T03:17:22;87111.13;;;-142.97;51.97
8451;BME280;4262;50.980;13.892;2024-03-08T03:19:50;87115.06;;;-142.97;51.85
8451;BME280;4262;50.980;13.892;2024-03-08T03:22:17;87122.94;;;-142.97;52.09
8451;BME280;4262;50.980;13.892;2024-03-08T03:24:44;87136.75;;;-142.97;52.14
8451;BME280;4262;50.980;13.892;2024-03-08T03:27:11;87128.88;;;-142.97;52.43
8451;BME280;4262;50.980;13.892;2024-03-08T03:29:41;87225.44;;;-142.97;52.45
8451;BME280;4262;50.980;13.892;2024-03-08T03:32:14;87156.44;;;-142.97;52.60
8451;BME280;4262;50.980;13.892;2024-03-08T03:34:44;87138.72;;;-142.97;52.57
8451;BME280;4262;50.980;13.892;2024-03-08T03:37:11;87136.75;;;-142.97;52.31
8451;BME280;4262;50.980;13.892;2024-03-08T03:39:38;87138.72;;;-142.97;52.37
8451;BME280;4262;50.980;13.892;2024-03-08T03:42:14;87119.00;;;-142.97;52.06
8451;BME280;4262;50.980;13.892;2024-03-08T03:44:44;87136.75;;;-142.97;52.14
8451;BME280;4262;50.980;13.892;2024-03-08T03:47:10;87160.41;;;-142.97;52.21
8451;BME280;4262;50.980;13.892;2024-03-08T03:49:37;87158.44;;;-142.97;52.74
8451;BME280;4262;50.980;13.892;2024-03-08T03:52:05;87168.28;;;-142.97;52.70
8451;BME280;4262;50.980;13.892;2024-03-08T03:54:31;87138.72;;;-142.97;53.02
8451;BME280;4262;50.980;13.892;2024-03-08T03:56:59;87237.25;;;-142.97;53.44
8451;BME280;4262;50.980;13.892;2024-03-08T03:59:26;87166.31;;;-142.97;53.87
8451;BME280;4262;50.980;13.892;2024-03-08T04:01:54;87256.97;;;-142.97;54.03
8451;BME280;4262;50.980;13.892;2024-03-08T04:04:21;87231.34;;;-142.97;54.37
8451;BME280;4262;50.980;13.892;2024-03-08T04:06:50;87199.81;;;-142.97;54.37
8451;BME280;4262;50.980;13.892;2024-03-08T04:09:17;87215.56;;;-142.97;55.01
8451;BME280;4262;50.980;13.892;2024-03-08T04:11:44;87217.56;;;-142.97;55.46
8451;BME280;4262;50.980;13.892;2024-03-08T04:14:11;87213.59;;;-142.97;55.53
8451;BME280;4262;50.980;13.892;2024-03-08T04:16:39;87231.34;;;-142.97;56.20
8451;BME280;4262;50.980;13.892;2024-03-08T04:19:07;87209.66;;;-142.97;55.75
8451;BME280;4262;50.980;13.892;2024-03-08T04:21:35;87223.47;;;-142.97;56.00
8451;BME280;4262;50.980;13.892;2024-03-08T04:24:05;87203.75;;;-142.97;55.82
8451;BME280;4262;50.980;13.892;2024-03-08T04:26:32;87213.59;;;-142.97;55.67
8451;BME280;4262;50.980;13.892;2024-03-08T04:28:59;87304.25;;;-142.97;56.06
8451;BME280;4262;50.980;13.892;2024-03-08T04:31:27;87199.81;;;-142.97;56.10
8451;BME280;4262;50.980;13.892;2024-03-08T04:33:53;87197.84;;;-142.97;55.62
8451;BME280;4262;50.980;13.892;2024-03-08T04:36:22;87107.19;;;-142.97;55.50
8451;BME280;4262;50.980;13.892;2024-03-08T04:38:50;87207.69;;;-142.97;55.09
8451;BME280;4262;50.980;13.892;2024-03-08T04:41:18;87225.44;;;-142.97;55.13
8451;BME280;4262;50.980;13.892;2024-03-08T04:43:45;87268.78;;;-142.97;55.67
8451;BME280;4262;50.980;13.892;2024-03-08T04:46:12;87191.94;;;-142.97;55.75
8451;BME280;4262;50.980;13.892;2024-03-08T04:48:39;87195.88;;;-142.97;55.54
8451;BME280;4262;50.980;13.892;2024-03-08T04:51:07;87186.00;;;-142.97;55.47
8451;BME280;4262;50.980;13.892;2024-03-08T04:53:36;87262.88;;;-142.97;55.61
8451;BME280;4262;50.980;13.892;2024-03-08T04:56:04;87211.63;;;-142.97;55.23
8451;BME280;4262;50.980;13.892;2024-03-08T04:58:32;87182.06;;;-142.97;55.18
8451;BME280;4262;50.980;13.892;2024-03-08T05:01:00;87201.78;;;-142.97;54.98
8451;BME280;4262;50.980;13.892;2024-03-08T05:03:26;87162.38;;;-142.97;54.79
8451;BME280;4262;50.980;13.892;2024-03-08T05:05:56;87197.84;;;-142.97;54.44
8451;BME280;4262;50.980;13.892;2024-03-08T05:08:23;87186.00;;;-142.97;54.44
8451;BME280;4262;50.980;13.892;2024-03-08T05:10:51;87186.00;;;-142.97;54.78
8451;BME280;4262;50.980;13.892;2024-03-08T05:13:18;87180.09;;;-142.97;55.00
8451;BME280;4262;50.980;13.892;2024-03-08T05:15:49;87182.06;;;-142.97;54.78
8451;BME280;4262;50.980;13.892;2024-03-08T05:18:16;87186.00;;;-142.97;54.02
8451;BME280;4262;50.980;13.892;2024-03-08T05:20:43;87188.00;;;-142.97;54.24
8451;BME280;4262;50.980;13.892;2024-03-08T05:23:10;87215.56;;;-142.97;54.45
8451;BME280;4262;50.980;13.892;2024-03-08T05:25:38;87193.91;;;-142.97;54.53
8451;BME280;4262;50.980;13.892;2024-03-08T05:28:06;87199.81;;;-142.97;54.45
8451;BME280;4262;50.980;13.892;2024-03-08T05:30:34;87189.97;;;-142.97;53.90
8451;BME280;4262;50.980;13.892;2024-03-08T05:33:01;87119.00;;;-142.97;53.79
8451;BME280;4262;50.980;13.892;2024-03-08T05:35:29;87178.13;;;-142.97;54.11
8451;BME280;4262;50.980;13.892;2024-03-08T05:37:56;87174.19;;;-142.97;53.56
8451;BME280;4262;50.980;13.892;2024-03-08T05:40:26;87197.84;;;-142.97;53.61
8451;BME280;4262;50.980;13.892;2024-03-08T05:43:04;87146.59;;;-142.97;53.62
8451;BME280;4262;50.980;13.892;2024-03-08T05:45:41;87268.78;;;-142.97;54.02
8451;BME280;4262;50.980;13.892;2024-03-08T05:48:15;87164.34;;;-142.97;53.79
8451;BME280;4262;50.980;13.892;2024-03-08T05:51:05;87168.28;;;-142.97;53.70
8451;BME280;4262;50.980;13.892;2024-03-08T05:53:45;87233.31;;;-142.97;53.63
8451;BME280;4262;50.980;13.892;2024-03-08T05:56:35;87182.06;;;-142.97;53.88
8451;BME280;4262;50.980;13.892;2024-03-08T06:01:48;87296.38;;;-142.97;54.15
8451;BME280;4262;50.980;13.892;2024-03-08T06:03:06;87160.41;;;-142.97;54.54
8451;BME280;4262;50.980;13.892;2024-03-08T06:05:40;87243.16;;;-142.97;54.99
8451;BME280;4262;50.980;13.892;2024-03-08T06:08:41;87258.94;;;-142.97;55.11
8451;BME280;4262;50.980;13.892;2024-03-08T06:11:37;87231.34;;;-142.97;55.04
8451;BME280;4262;50.980;13.892;2024-03-08T06:14:22;87189.97;;;-142.97;55.52
8451;BME280;4262;50.980;13.892;2024-03-08T06:16:59;87126.91;;;-142.97;56.64
8451;BME280;4262;50.980;13.892;2024-03-08T06:19:56;86837.19;;;-142.97;57.27
8451;BME280;4262;50.980;13.892;2024-03-08T06:22:57;86992.88;;;-142.97;55.66
8451;BME280;4262;50.980;13.892;2024-03-08T06:25:40;86864.78;;;-142.97;54.30
8451;BME280;4262;50.980;13.892;2024-03-08T06:28:07;86784.00;;;-142.97;53.30
8451;BME280;4262;50.980;13.892;2024-03-08T06:30:51;86539.66;;;-142.97;51.74
8451;BME280;4262;50.980;13.892;2024-03-08T06:33:24;86689.41;;;-142.97;49.51
8451;BME280;4262;50.980;13.892;2024-03-08T06:35:58;86622.41;;;-142.97;48.90
8451;BME280;4262;50.980;13.892;2024-03-08T06:38:25;86567.25;;;-142.97;47.70
8451;BME280;4262;50.980;13.892;2024-03-08T06:41:09;86561.31;;;-142.97;46.41
8451;BME280;4262;50.980;13.892;2024-03-08T06:43:41;86458.88;;;-142.97;45.38
8451;BME280;4262;50.980;13.892;2024-03-08T06:46:10;86293.34;;;-142.97;44.50
8451;BME280;4262;50.980;13.892;2024-03-08T06:48:48;86378.06;;;-142.97;44.94
8451;BME280;4262;50.980;13.892;2024-03-08T06:51:17;86370.19;;;-142.97;44.21
8451;BME280;4262;50.980;13.892;2024-03-08T06:53:47;86419.47;;;-142.97;43.92
8451;BME280;4262;50.980;13.892;2024-03-08T06:56:14;86403.69;;;-142.97;44.67
8451;BME280;4262;50.980;13.892;2024-03-08T06:58:43;86352.47;;;-142.97;44.37
8451;BME280;4262;50.980;13.892;2024-03-08T07:01:10;86356.41;;;-142.97;44.19
8451;BME280;4262;50.980;13.892;2024-03-08T07:03:49;86358.38;;;-142.97;44.20
8451;BME280;4262;50.980;13.892;2024-03-08T07:06:22;86320.94;;;-142.97;43.52
8451;BME280;4262;50.980;13.892;2024-03-08T07:08:52;86293.34;;;-142.97;43.59
8451;BME280;4262;50.980;13.892;2024-03-08T07:11:19;86275.63;;;-142.97;43.09
8451;BME280;4262;50.980;13.892;2024-03-08T07:13:50;86192.88;;;-142.97;42.94
8451;BME280;4262;50.980;13.892;2024-03-08T07:16:17;86212.56;;;-142.97;43.18
8451;BME280;4262;50.980;13.892;2024-03-08T07:18:44;86183.03;;;-142.97;43.37
8451;BME280;4262;50.980;13.892;2024-03-08T07:21:12;86181.06;;;-142.97;42.32
8451;BME280;4262;50.980;13.892;2024-03-08T07:23:40;86161.34;;;-142.97;42.93
8451;BME280;4262;50.980;13.892;2024-03-08T07:26:23;86177.09;;;-142.97;42.43
8451;BME280;4262;50.980;13.892;2024-03-08T07:28:50;86116.03;;;-142.97;42.00
8451;BME280;4262;50.980;13.892;2024-03-08T07:31:17;86054.97;;;-142.97;42.15
8451;BME280;4262;50.980;13.892;2024-03-08T07:34:02;86019.50;;;-142.97;40.98
8451;BME280;4262;50.980;13.892;2024-03-08T07:36:33;86003.72;;;-142.97;40.82
8451;BME280;4262;50.980;13.892;2024-03-08T07:39:02;85970.25;;;-142.97;40.69
8451;BME280;4262;50.980;13.892;2024-03-08T07:41:31;86007.69;;;-142.97;41.20
8451;BME280;4262;50.980;13.892;2024-03-08T07:43:59;85942.66;;;-142.97;40.72
8451;BME280;4262;50.980;13.892;2024-03-08T07:46:32;85850.06;;;-142.97;40.52
8451;BME280;4262;50.980;13.892;2024-03-08T07:49:00;85777.19;;;-142.97;39.65
8451;BME280;4262;50.980;13.892;2024-03-08T07:51:27;85852.03;;;-142.97;39.37
8451;BME280;4262;50.980;13.892;2024-03-08T07:53:53;85731.88;;;-142.97;39.36
8451;BME280;4262;50.980;13.892;2024-03-08T07:56:21;85655.03;;;-142.97;37.76
8451;BME280;4262;50.980;13.892;2024-03-08T07:58:48;85629.44;;;-142.97;37.42
8451;BME280;4262;50.980;13.892;2024-03-08T08:01:18;85680.66;;;-142.97;38.11
8451;BME280;4262;50.980;13.892;2024-03-08T08:03:45;85460.03;;;-142.97;37.46
8451;BME280;4262;50.980;13.892;2024-03-08T08:06:14;85603.81;;;-142.97;37.19
8451;BME280;4262;50.980;13.892;2024-03-08T08:08:41;85574.28;;;-142.97;37.13
8451;BME280;4262;50.980;13.892;2024-03-08T08:11:08;85550.63;;;-142.97;37.07
8451;BME280;4262;50.980;13.892;2024-03-08T08:13:41;85556.53;;;-142.97;37.09
8451;BME280;4262;50.980;13.892;2024-03-08T08:16:09;85471.84;;;-142.97;35.96
8451;BME280;4262;50.980;13.892;2024-03-08T08:18:36;85550.63;;;-142.97;36.45
8451;BME280;4262;50.980;13.892;2024-03-08T08:21:03;85527.00;;;-142.97;36.34
8451;BME280;4262;50.980;13.892;2024-03-08T08:23:31;85471.84;;;-142.97;36.03
8451;BME280;4262;50.980;13.892;2024-03-08T08:25:58;85527.00;;;-142.97;35.77
8451;BME280;4262;50.980;13.892;2024-03-08T08:28:25;85375.31;;;-142.97;35.93
8451;BME280;4262;50.980;13.892;2024-03-08T08:30:53;85479.72;;;-142.97;35.79
8451;BME280;4262;50.980;13.892;2024-03-08T08:33:19;85367.44;;;-142.97;35.45
8451;BME280;4262;50.980;13.892;2024-03-08T08:35:46;85361.53;;;-142.97;35.65
8451;BME280;4262;50.980;13.892;2024-03-08T08:38:13;85462.00;;;-142.97;35.97
8451;BME280;4262;50.980;13.892;2024-03-08T08:40:40;85300.47;;;-142.97;35.21
8451;BME280;4262;50.980;13.892;2024-03-08T08:43:07;85302.44;;;-142.97;35.53
8451;BME280;4262;50.980;13.892;2024-03-08T08:45:34;85377.28;;;-142.97;35.74
8451;BME280;4262;50.980;13.892;2024-03-08T08:48:03;85322.13;;;-142.97;35.22
8451;BME280;4262;50.980;13.892;2024-03-08T08:50:30;85284.72;;;-142.97;34.99
8451;BME280;4262;50.980;13.892;2024-03-08T08:52:58;85276.84;;;-142.97;34.46
8451;BME280;4262;50.980;13.892;2024-03-08T08:55:25;85184.25;;;-142.97;34.47
8451;BME280;4262;50.980;13.892;2024-03-08T08:57:52;85251.22;;;-142.97;34.72
8451;BME280;4262;50.980;13.892;2024-03-08T09:00:19;85162.59;;;-142.97;34.38
8451;BME280;4262;50.980;13.892;2024-03-08T09:02:47;85235.47;;;-142.97;34.46
8451;BME280;4262;50.980;13.892;2024-03-08T09:05:15;85079.88;;;-142.97;33.83
8451;BME280;4262;50.980;13.892;2024-03-08T09:07:43;85083.81;;;-142.97;33.49
8451;BME280;4262;50.980;13.892;2024-03-08T09:10:11;85075.94;;;-142.97;33.48
8451;BME280;4262;50.980;13.892;2024-03-08T09:12:39;84930.19;;;-142.97;32.33
8451;BME280;4262;50.980;13.892;2024-03-08T09:15:07;85028.66;;;-142.97;32.83
8451;BME280;4262;50.980;13.892;2024-03-08T09:17:36;84951.84;;;-142.97;32.91
8451;BME280;4262;50.980;13.892;2024-03-08T09:20:06;84949.88;;;-142.97;32.48
8451;BME280;4262;50.980;13.892;2024-03-08T09:22:35;84837.63;;;-142.97;31.95
8451;BME280;4262;50.980;13.892;2024-03-08T09:25:03;84374.81;;;-142.97;31.95
8451;BME280;4262;50.980;13.892;2024-03-08T09:27:30;84723.38;;;-142.97;31.78
8451;BME280;4262;50.980;13.892;2024-03-08T09:29:57;84916.41;;;-142.97;32.40
8451;BME280;4262;50.980;13.892;2024-03-08T09:32:24;84798.22;;;-142.97;32.31
8451;BME280;4262;50.980;13.892;2024-03-08T09:34:52;84845.50;;;-142.97;31.35
8451;BME280;4262;50.980;13.892;2024-03-08T09:37:19;84912.47;;;-142.97;32.86
8451;BME280;4262;50.980;13.892;2024-03-08T09:39:47;84817.91;;;-142.97;31.76
8451;BME280;4262;50.980;13.892;2024-03-08T09:42:15;84733.22;;;-142.97;32.45
8451;BME280;4262;50.980;13.892;2024-03-08T09:44:46;84687.94;;;-142.97;31.26
8451;BME280;4262;50.980;13.892;2024-03-08T09:47:14;84845.50;;;-142.97;32.04
8451;BME280;4262;50.980;13.892;2024-03-08T09:49:41;84733.22;;;-142.97;31.61
8451;BME280;4262;50.980;13.892;2024-03-08T09:52:09;84504.78;;;-142.97;31.03
8451;BME280;4262;50.980;13.892;2024-03-08T09:54:37;84526.44;;;-142.97;30.23
8451;BME280;4262;50.980;13.892;2024-03-08T09:57:06;84711.56;;;-142.97;30.74
8451;BME280;4262;50.980;13.892;2024-03-08T09:59:36;84678.09;;;-142.97;30.98
8451;BME280;4262;50.980;13.892;2024-03-08T10:02:15;84719.44;;;-142.97;31.00
8451;BME280;4262;50.980;13.892;2024-03-08T10:04:41;84729.28;;;-142.97;30.86
8451;BME280;4262;50.980;13.892;2024-03-08T10:07:09;84719.44;;;-142.97;30.97
8451;BME280;4262;50.980;13.892;2024-03-08T10:09:36;84435.88;;;-142.97;30.57
8451;BME280;4262;50.980;13.892;2024-03-08T10:12:06;84477.22;;;-142.97;30.00
8451;BME280;4262;50.980;13.892;2024-03-08T10:14:33;84498.88;;;-142.97;29.97
8451;BME280;4262;50.980;13.892;2024-03-08T10:17:00;84518.56;;;-142.97;30.31
8451;BME280;4262;50.980;13.892;2024-03-08T10:19:27;84406.31;;;-142.97;29.87
8451;BME280;4262;50.980;13.892;2024-03-08T10:21:55;84567.81;;;-142.97;30.77
8451;BME280;4262;50.980;13.892;2024-03-08T10:24:25;84619.00;;;-142.97;30.32
8451;BME280;4262;50.980;13.892;2024-03-08T10:26:52;84451.63;;;-142.97;29.89
8451;BME280;4262;50.980;13.892;2024-03-08T10:29:21;84577.66;;;-142.97;29.65
8451;BME280;4262;50.980;13.892;2024-03-08T10:31:48;84622.94;;;-142.97;30.55
8451;BME280;4262;50.980;13.892;2024-03-08T10:34:15;84605.22;;;-142.97;30.54
8451;BME280;4262;50.980;13.892;2024-03-08T10:36:42;84622.94;;;-142.97;31.34
8451;BME280;4262;50.980;13.892;2024-03-08T10:39:16;84491.00;;;-142.97;30.74
8451;BME280;4262;50.980;13.892;2024-03-08T10:41:52;84483.13;;;-142.97;30.32
8451;BME280;4262;50.980;13.892;2024-03-08T10:47:23;84506.75;;;-142.97;30.22
8451;BME280;4262;50.980;13.892;2024-03-08T10:49:55;84492.97;;;-142.97;30.59
8451;BME280;4262;50.980;13.892;2024-03-08T10:52:29;84569.78;;;-142.97;30.98
8451;BME280;4262;50.980;13.892;2024-03-08T10:54:57;84512.66;;;-142.97;30.46
8451;BME280;4262;50.980;13.892;2024-03-08T10:57:24;84640.66;;;-142.97;30.58
8451;BME280;4262;50.980;13.892;2024-03-08T10:59:52;84459.50;;;-142.97;30.12
8451;BME280;4262;50.980;13.892;2024-03-08T11:02:19;84522.50;;;-142.97;29.98
8451;BME280;4262;50.980;13.892;2024-03-08T11:04:47;84406.31;;;-142.97;29.73
8451;BME280;4262;50.980;13.892;2024-03-08T11:07:14;84557.97;;;-142.97;30.56
8451;BME280;4262;50.980;13.892;2024-03-08T11:09:47;84619.00;;;-142.97;30.15
8451;BME280;4262;50.980;13.892;2024-03-08T11:12:21;84467.38;;;-142.97;29.64
8451;BME280;4262;50.980;13.892;2024-03-08T11:14:52;84341.34;;;-142.97;29.67
8451;BME280;4262;50.980;13.892;2024-03-08T11:17:39;84195.63;;;-142.97;28.97
8451;BME280;4262;50.980;13.892;2024-03-08T11:20:10;84229.09;;;-142.97;29.69
8451;BME280;4262;50.980;13.892;2024-03-08T11:22:41;84487.06;;;-142.97;30.13
8451;BME280;4262;50.980;13.892;2024-03-08T11:25:30;84402.38;;;-142.97;29.94
8451;BME280;4262;50.980;13.892;2024-03-08T11:28:07;84081.41;;;-142.97;29.19
8451;BME280;4262;50.980;13.892;2024-03-08T11:30:35;84122.78;;;-142.97;28.66
8451;BME280;4262;50.980;13.892;2024-03-08T11:33:03;84236.97;;;-142.97;29.05
8451;BME280;4262;50.980;13.892;2024-03-08T11:35:30;84337.41;;;-142.97;28.95
8451;BME280;4262;50.980;13.892;2024-03-08T11:37:58;84278.34;;;-142.97;28.51
8451;BME280;4262;50.980;13.892;2024-03-08T11:40:26;84298.03;;;-142.97;28.71
8451;BME280;4262;50.980;13.892;2024-03-08T11:42:53;84388.59;;;-142.97;28.89
8451;BME280;4262;50.980;13.892;2024-03-08T11:45:21;84244.84;;;-142.97;29.43
8451;BME280;4262;50.980;13.892;2024-03-08T11:47:49;84329.53;;;-142.97;29.07
8451;BME280;4262;50.980;13.892;2024-03-08T11:50:16;84317.72;;;-142.97;28.83
8451;BME280;4262;50.980;13.892;2024-03-08T11:52:44;84235.00;;;-142.97;29.07
8451;BME280;4262;50.980;13.892;2024-03-08T11:55:11;84363.00;;;-142.97;28.97
8451;BME280;4262;50.980;13.892;2024-03-08T11:57:39;84366.94;;;-142.97;29.04
8451;BME280;4262;50.980;13.892;2024-03-08T12:00:15;84250.75;;;-142.97;28.30
8451;BME280;4262;50.980;13.892;2024-03-08T12:03:01;84189.72;;;-142.97;28.17
8451;BME280;4262;50.980;13.892;2024-03-08T12:05:28;84229.09;;;-142.97;28.83
8451;BME280;4262;50.980;13.892;2024-03-08T12:07:57;84321.66;;;-142.97;28.85
8451;BME280;4262;50.980;13.892;2024-03-08T12:10:24;84485.09;;;-142.97;29.29
8451;BME280;4262;50.980;13.892;2024-03-08T12:12:52;84453.59;;;-142.97;29.74
8451;BME280;4262;50.980;13.892;2024-03-08T12:15:20;84479.19;;;-142.97;30.07
8451;BME280;4262;50.980;13.892;2024-03-08T12:17:49;84400.41;;;-142.97;30.13
8451;BME280;4262;50.980;13.892;2024-03-08T12:20:19;84575.69;;;-142.97;30.20
8451;BME280;4262;50.980;13.892;2024-03-08T12:22:48;84534.34;;;-142.97;30.04
8451;BME280;4262;50.980;13.892;2024-03-08T12:25:15;84556.00;;;-142.97;29.57
8451;BME280;4262;50.980;13.892;2024-03-08T12:27:43;84418.16;;;-142.97;30.10
8451;BME280;4262;50.980;13.892;2024-03-08T12:30:21;84593.41;;;-142.97;29.82
8451;BME280;4262;50.980;13.892;2024-03-08T12:32:51;84567.81;;;-142.97;30.33
8451;BME280;4262;50.980;13.892;2024-03-08T12:35:21;84642.66;;;-142.97;30.93
8451;BME280;4262;50.980;13.892;2024-03-08T12:37:50;84498.88;;;-142.97;30.71
8451;BME280;4262;50.980;13.892;2024-03-08T12:40:17;84359.06;;;-142.97;29.75
8451;BME280;4262;50.980;13.892;2024-03-08T12:42:44;84544.19;;;-142.97;30.43
8451;BME280;4262;50.980;13.892;2024-03-08T12:45:14;84516.59;;;-142.97;30.47
8451;BME280;4262;50.980;13.892;2024-03-08T12:47:41;84557.97;;;-142.97;30.24
8451;BME280;4262;50.980;13.892;2024-03-08T12:50:09;84615.06;;;-142.97;30.19
8451;BME280;4262;50.980;13.892;2024-03-08T12:52:37;84400.41;;;-142.97;30.22
8451;BME280;4262;50.980;13.892;2024-03-08T12:55:04;84516.59;;;-142.97;29.84
8451;BME280;4262;50.980;13.892;2024-03-08T12:57:34;84583.56;;;-142.97;30.23
8451;BME280;4262;50.980;13.892;2024-03-08T13:00:06;84502.81;;;-142.97;30.08
8451;BME280;4262;50.980;13.892;2024-03-08T13:02:39;84498.88;;;-142.97;30.03
8451;BME280;4262;50.980;13.892;2024-03-08T13:05:06;84563.88;;;-142.97;30.07